Pagina principale
METAR-TAF:

METAR-TAF

Aeroporti :

Treviso, Italia

Aeroporto di Treviso-Istrana

latitudine: 45-41N, longitudine: 012-06E, altezza: 45 m

Osservazione

Il bollettino è stato emesso 1 ora e 13 minuti fa, alle 23:55 UTC
Vento 3 kt da nord-est
Temperature 4°C
Umidità 87%
Pressione 1003 hPa
Visibilità: 3500 m
Nuvoloso ad un'altezza di 3500 ft
foschia

METAR: LIPS 162355Z 05003KT 3500 BR BKN035 04/02 Q1003 RMK BKN VIS MIN 3500 WIND THR26 03003KT WIND THR08 03003KT YLO

Ora: 02:08 (01:08 UTC)

Previsione

Il bollettino è stato emesso 2 ore e 8 minuti fa, alle 23:00 UTC
Previsione valida dal 17 alle 00 UTC al 17 alle 09 UTC
Vento 4 kt da direzioni variabili
Visibilità: 3000 m
Nuvoloso ad un'altezza di 700 ft
Nuvoloso ad un'altezza di 2000 ft
foschia
Temporaneamente
dal 17 alle 00 UTC al 17 alle 06 UTC
Visibilità: 1200 m
foschia

TAF: LIPS 162300Z 1700/1709 VRB04KT 3000 BR BKN007 BKN020 TEMPO 1700/1706 1200 BR

Osservazioni e previsioni meteorologiche di più di 4000 aeroporti (messaggi METAR e TAF).

Le stazioni disponibili sono rappresentate dai dischi gialli e rossi sulla carta.

Puntare il mouse per vedere il nome della stazione.

Clicca sopra per visualizzare le osservazioni e previsioni meteorologiche.

Per cambiare la mappa : fare clic sui pulsanti verdi con una croce nera per ingrandire, il pulsante verde con un trattino per diminuire, o sulla freccia verde per le mappe adiacenti.


METAR-TAF: